sensor_id;sensor_type;location;lat;lon;timestamp;P1;durP1;ratioP1;P2;durP2;ratioP2
31442;SDS011;18065;55.876;9.830;2024-03-29T00:01:04;2.08;;;1.00;;
31442;SDS011;18065;55.876;9.830;2024-03-29T00:03:30;3.60;;;1.25;;
31442;SDS011;18065;55.876;9.830;2024-03-29T00:05:56;2.85;;;0.90;;
31442;SDS011;18065;55.876;9.830;2024-03-29T00:08:22;3.70;;;0.88;;
31442;SDS011;18065;55.876;9.830;2024-03-29T00:10:48;4.03;;;0.80;;
31442;SDS011;18065;55.876;9.830;2024-03-29T00:13:17;1.73;;;0.90;;
31442;SDS011;18065;55.876;9.830;2024-03-29T00:15:45;1.80;;;0.82;;
31442;SDS011;18065;55.876;9.830;2024-03-29T00:18:11;1.73;;;0.80;;
31442;SDS011;18065;55.876;9.830;2024-03-29T00:20:37;1.83;;;0.77;;
31442;SDS011;18065;55.876;9.830;2024-03-29T00:23:04;2.08;;;0.75;;
31442;SDS011;18065;55.876;9.830;2024-03-29T00:25:30;2.05;;;0.70;;
31442;SDS011;18065;55.876;9.830;2024-03-29T00:27:56;2.25;;;0.75;;
31442;SDS011;18065;55.876;9.830;2024-03-29T00:30:25;2.33;;;0.75;;
31442;SDS011;18065;55.876;9.830;2024-03-29T00:32:51;3.35;;;0.98;;
31442;SDS011;18065;55.876;9.830;2024-03-29T00:35:17;2.83;;;0.82;;
31442;SDS011;18065;55.876;9.830;2024-03-29T00:37:43;2.33;;;0.90;;
31442;SDS011;18065;55.876;9.830;2024-03-29T00:40:12;1.55;;;0.80;;
31442;SDS011;18065;55.876;9.830;2024-03-29T00:42:38;3.28;;;0.80;;
31442;SDS011;18065;55.876;9.830;2024-03-29T00:45:05;1.90;;;0.90;;
31442;SDS011;18065;55.876;9.830;2024-03-29T00:47:34;2.25;;;0.85;;
31442;SDS011;18065;55.876;9.830;2024-03-29T00:50:00;2.25;;;0.73;;
31442;SDS011;18065;55.876;9.830;2024-03-29T00:52:26;2.67;;;0.80;;
31442;SDS011;18065;55.876;9.830;2024-03-29T00:54:53;4.28;;;1.10;;
31442;SDS011;18065;55.876;9.830;2024-03-29T00:57:19;2.10;;;0.73;;
31442;SDS011;18065;55.876;9.830;2024-03-29T00:59:47;2.45;;;1.08;;
31442;SDS011;18065;55.876;9.830;2024-03-29T01:02:13;3.33;;;0.85;;
31442;SDS011;18065;55.876;9.830;2024-03-29T01:04:42;1.98;;;0.70;;
31442;SDS011;18065;55.876;9.830;2024-03-29T01:07:08;1.58;;;0.68;;
31442;SDS011;18065;55.876;9.830;2024-03-29T01:09:34;2.75;;;0.82;;
31442;SDS011;18065;55.876;9.830;2024-03-29T01:12:01;3.92;;;0.73;;
31442;SDS011;18065;55.876;9.830;2024-03-29T01:14:27;2.88;;;0.80;;
31442;SDS011;18065;55.876;9.830;2024-03-29T01:16:53;1.35;;;0.60;;
31442;SDS011;18065;55.876;9.830;2024-03-29T01:19:19;1.52;;;0.77;;
31442;SDS011;18065;55.876;9.830;2024-03-29T01:21:48;2.00;;;0.70;;
31442;SDS011;18065;55.876;9.830;2024-03-29T01:24:14;1.02;;;0.50;;
31442;SDS011;18065;55.876;9.830;2024-03-29T01:26:40;1.33;;;0.60;;
31442;SDS011;18065;55.876;9.830;2024-03-29T01:29:06;1.02;;;0.75;;
31442;SDS011;18065;55.876;9.830;2024-03-29T01:31:33;1.50;;;0.60;;
31442;SDS011;18065;55.876;9.830;2024-03-29T01:33:59;1.70;;;0.63;;
31442;SDS011;18065;55.876;9.830;2024-03-29T01:36:25;1.35;;;0.70;;
31442;SDS011;18065;55.876;9.830;2024-03-29T01:38:54;3.75;;;0.70;;
31442;SDS011;18065;55.876;9.830;2024-03-29T01:41:20;2.53;;;0.70;;
31442;SDS011;18065;55.876;9.830;2024-03-29T01:43:47;1.08;;;0.60;;
31442;SDS011;18065;55.876;9.830;2024-03-29T01:46:13;2.65;;;1.00;;
31442;SDS011;18065;55.876;9.830;2024-03-29T01:48:39;3.85;;;1.20;;
31442;SDS011;18065;55.876;9.830;2024-03-29T01:51:06;2.47;;;0.93;;
31442;SDS011;18065;55.876;9.830;2024-03-29T01:53:32;1.10;;;0.63;;
31442;SDS011;18065;55.876;9.830;2024-03-29T01:56:02;1.13;;;0.70;;
31442;SDS011;18065;55.876;9.830;2024-03-29T01:58:29;2.33;;;0.80;;
31442;SDS011;18065;55.876;9.830;2024-03-29T02:00:57;1.30;;;0.60;;
31442;SDS011;18065;55.876;9.830;2024-03-29T02:03:25;3.90;;;0.70;;
31442;SDS011;18065;55.876;9.830;2024-03-29T02:05:52;1.33;;;0.60;;
31442;SDS011;18065;55.876;9.830;2024-03-29T02:08:19;1.88;;;0.77;;
31442;SDS011;18065;55.876;9.830;2024-03-29T02:10:45;2.58;;;0.90;;
31442;SDS011;18065;55.876;9.830;2024-03-29T02:13:16;1.38;;;0.70;;
31442;SDS011;18065;55.876;9.830;2024-03-29T02:15:42;1.83;;;0.63;;
31442;SDS011;18065;55.876;9.830;2024-03-29T02:18:08;3.42;;;0.70;;
31442;SDS011;18065;55.876;9.830;2024-03-29T02:20:34;3.70;;;0.70;;
31442;SDS011;18065;55.876;9.830;2024-03-29T02:23:04;1.65;;;0.70;;
31442;SDS011;18065;55.876;9.830;2024-03-29T02:25:35;1.75;;;0.88;;
31442;SDS011;18065;55.876;9.830;2024-03-29T02:28:03;1.60;;;0.82;;
31442;SDS011;18065;55.876;9.830;2024-03-29T02:30:30;1.70;;;0.60;;
31442;SDS011;18065;55.876;9.830;2024-03-29T02:32:57;1.45;;;0.80;;
31442;SDS011;18065;55.876;9.830;2024-03-29T02:35:23;2.95;;;0.98;;
31442;SDS011;18065;55.876;9.830;2024-03-29T02:37:52;1.70;;;0.68;;
31442;SDS011;18065;55.876;9.830;2024-03-29T02:40:18;1.20;;;0.60;;
31442;SDS011;18065;55.876;9.830;2024-03-29T02:42:48;2.78;;;0.90;;
31442;SDS011;18065;55.876;9.830;2024-03-29T02:45:14;1.40;;;0.77;;
31442;SDS011;18065;55.876;9.830;2024-03-29T02:47:41;2.67;;;0.73;;
31442;SDS011;18065;55.876;9.830;2024-03-29T02:50:08;1.58;;;0.80;;
31442;SDS011;18065;55.876;9.830;2024-03-29T02:52:35;4.68;;;0.88;;
31442;SDS011;18065;55.876;9.830;2024-03-29T02:55:02;1.80;;;0.80;;
31442;SDS011;18065;55.876;9.830;2024-03-29T02:57:28;3.30;;;0.98;;
31442;SDS011;18065;55.876;9.830;2024-03-29T02:59:57;2.53;;;0.50;;
31442;SDS011;18065;55.876;9.830;2024-03-29T03:02:23;2.13;;;0.85;;
31442;SDS011;18065;55.876;9.830;2024-03-29T03:04:50;2.45;;;0.70;;
31442;SDS011;18065;55.876;9.830;2024-03-29T03:07:16;1.95;;;0.73;;
31442;SDS011;18065;55.876;9.830;2024-03-29T03:09:57;1.40;;;0.88;;
31442;SDS011;18065;55.876;9.830;2024-03-29T03:12:38;1.90;;;0.80;;
31442;SDS011;18065;55.876;9.830;2024-03-29T03:15:07;3.55;;;0.88;;
31442;SDS011;18065;55.876;9.830;2024-03-29T03:17:34;2.10;;;0.63;;
31442;SDS011;18065;55.876;9.830;2024-03-29T03:20:00;1.70;;;0.70;;
31442;SDS011;18065;55.876;9.830;2024-03-29T03:22:26;1.70;;;0.70;;
31442;SDS011;18065;55.876;9.830;2024-03-29T03:24:53;2.95;;;0.77;;
31442;SDS011;18065;55.876;9.830;2024-03-29T03:27:19;3.38;;;0.90;;
31442;SDS011;18065;55.876;9.830;2024-03-29T03:29:45;1.40;;;0.60;;
31442;SDS011;18065;55.876;9.830;2024-03-29T03:32:14;1.90;;;0.60;;
31442;SDS011;18065;55.876;9.830;2024-03-29T03:34:40;2.15;;;0.88;;
31442;SDS011;18065;55.876;9.830;2024-03-29T03:37:06;1.77;;;0.80;;
31442;SDS011;18065;55.876;9.830;2024-03-29T03:39:32;2.35;;;0.90;;
31442;SDS011;18065;55.876;9.830;2024-03-29T03:41:59;1.75;;;0.70;;
31442;SDS011;18065;55.876;9.830;2024-03-29T03:44:25;0.73;;;0.70;;
31442;SDS011;18065;55.876;9.830;2024-03-29T03:46:51;2.55;;;1.00;;
31442;SDS011;18065;55.876;9.830;2024-03-29T03:49:20;2.13;;;0.60;;
31442;SDS011;18065;55.876;9.830;2024-03-29T03:51:46;1.75;;;0.73;;
31442;SDS011;18065;55.876;9.830;2024-03-29T03:54:15;0.82;;;0.50;;
31442;SDS011;18065;55.876;9.830;2024-03-29T03:56:41;1.10;;;0.55;;
31442;SDS011;18065;55.876;9.830;2024-03-29T03:59:08;1.05;;;0.80;;
31442;SDS011;18065;55.876;9.830;2024-03-29T04:01:34;1.35;;;0.80;;
31442;SDS011;18065;55.876;9.830;2024-03-29T04:04:00;1.40;;;0.75;;
31442;SDS011;18065;55.876;9.830;2024-03-29T04:06:29;0.82;;;0.57;;
31442;SDS011;18065;55.876;9.830;2024-03-29T04:08:55;1.23;;;0.60;;
31442;SDS011;18065;55.876;9.830;2024-03-29T04:11:22;2.72;;;0.85;;
31442;SDS011;18065;55.876;9.830;2024-03-29T04:13:48;1.63;;;0.90;;
31442;SDS011;18065;55.876;9.830;2024-03-29T04:16:14;2.60;;;0.70;;
31442;SDS011;18065;55.876;9.830;2024-03-29T04:18:40;1.05;;;0.60;;
31442;SDS011;18065;55.876;9.830;2024-03-29T04:21:07;3.03;;;0.80;;
31442;SDS011;18065;55.876;9.830;2024-03-29T04:23:36;1.13;;;0.70;;
31442;SDS011;18065;55.876;9.830;2024-03-29T04:26:03;1.08;;;0.60;;
31442;SDS011;18065;55.876;9.830;2024-03-29T04:28:29;1.13;;;0.52;;
31442;SDS011;18065;55.876;9.830;2024-03-29T04:30:56;1.70;;;0.60;;
31442;SDS011;18065;55.876;9.830;2024-03-29T04:33:26;1.00;;;0.60;;
31442;SDS011;18065;55.876;9.830;2024-03-29T04:35:53;1.48;;;0.90;;
31442;SDS011;18065;55.876;9.830;2024-03-29T04:38:20;1.27;;;0.70;;
31442;SDS011;18065;55.876;9.830;2024-03-29T04:40:51;1.58;;;0.75;;
31442;SDS011;18065;55.876;9.830;2024-03-29T04:43:18;1.08;;;0.70;;
31442;SDS011;18065;55.876;9.830;2024-03-29T04:45:44;1.00;;;0.65;;
31442;SDS011;18065;55.876;9.830;2024-03-29T04:48:11;1.73;;;0.70;;
31442;SDS011;18065;55.876;9.830;2024-03-29T04:50:37;1.65;;;0.77;;
31442;SDS011;18065;55.876;9.830;2024-03-29T04:53:04;1.48;;;0.50;;
31442;SDS011;18065;55.876;9.830;2024-03-29T04:55:30;2.42;;;0.70;;
31442;SDS011;18065;55.876;9.830;2024-03-29T04:57:59;0.90;;;0.57;;
31442;SDS011;18065;55.876;9.830;2024-03-29T05:00:26;3.00;;;0.60;;
31442;SDS011;18065;55.876;9.830;2024-03-29T05:02:52;1.73;;;0.60;;
31442;SDS011;18065;55.876;9.830;2024-03-29T05:05:18;2.38;;;0.70;;
31442;SDS011;18065;55.876;9.830;2024-03-29T05:07:44;2.28;;;0.60;;
31442;SDS011;18065;55.876;9.830;2024-03-29T05:10:11;1.48;;;0.70;;
31442;SDS011;18065;55.876;9.830;2024-03-29T05:12:37;2.35;;;0.70;;
31442;SDS011;18065;55.876;9.830;2024-03-29T05:15:06;3.22;;;0.98;;
31442;SDS011;18065;55.876;9.830;2024-03-29T05:17:33;2.50;;;0.63;;
31442;SDS011;18065;55.876;9.830;2024-03-29T05:19:59;1.27;;;0.60;;
31442;SDS011;18065;55.876;9.830;2024-03-29T05:22:25;1.08;;;0.70;;
31442;SDS011;18065;55.876;9.830;2024-03-29T05:24:52;1.25;;;0.80;;
31442;SDS011;18065;55.876;9.830;2024-03-29T05:27:19;1.13;;;0.52;;
31442;SDS011;18065;55.876;9.830;2024-03-29T05:29:46;1.92;;;0.60;;
31442;SDS011;18065;55.876;9.830;2024-03-29T05:32:14;1.27;;;0.80;;
31442;SDS011;18065;55.876;9.830;2024-03-29T05:34:41;1.15;;;0.60;;
31442;SDS011;18065;55.876;9.830;2024-03-29T05:37:07;3.00;;;0.50;;
31442;SDS011;18065;55.876;9.830;2024-03-29T05:39:35;0.75;;;0.60;;
31442;SDS011;18065;55.876;9.830;2024-03-29T05:42:02;0.82;;;0.50;;
31442;SDS011;18065;55.876;9.830;2024-03-29T05:44:28;3.75;;;0.50;;
31442;SDS011;18065;55.876;9.830;2024-03-29T05:46:54;2.72;;;0.77;;
31442;SDS011;18065;55.876;9.830;2024-03-29T05:49:24;2.10;;;0.60;;
31442;SDS011;18065;55.876;9.830;2024-03-29T05:51:50;1.35;;;0.80;;
31442;SDS011;18065;55.876;9.830;2024-03-29T05:54:17;0.82;;;0.60;;
31442;SDS011;18065;55.876;9.830;2024-03-29T05:56:43;0.52;;;0.50;;
31442;SDS011;18065;55.876;9.830;2024-03-29T05:59:09;2.08;;;0.50;;
31442;SDS011;18065;55.876;9.830;2024-03-29T06:01:35;1.75;;;0.60;;
31442;SDS011;18065;55.876;9.830;2024-03-29T06:04:02;5.75;;;1.00;;
31442;SDS011;18065;55.876;9.830;2024-03-29T06:06:31;1.30;;;0.60;;
31442;SDS011;18065;55.876;9.830;2024-03-29T06:09:00;2.33;;;0.50;;
31442;SDS011;18065;55.876;9.830;2024-03-29T06:11:26;2.95;;;0.70;;
31442;SDS011;18065;55.876;9.830;2024-03-29T06:13:52;0.50;;;0.50;;
31442;SDS011;18065;55.876;9.830;2024-03-29T06:16:51;2.08;;;0.52;;
31442;SDS011;18065;55.876;9.830;2024-03-29T06:19:32;1.10;;;0.55;;
31442;SDS011;18065;55.876;9.830;2024-03-29T06:22:01;2.25;;;0.75;;
31442;SDS011;18065;55.876;9.830;2024-03-29T06:24:27;2.15;;;0.55;;
31442;SDS011;18065;55.876;9.830;2024-03-29T06:26:54;2.05;;;0.50;;
31442;SDS011;18065;55.876;9.830;2024-03-29T06:29:20;1.88;;;0.55;;
31442;SDS011;18065;55.876;9.830;2024-03-29T06:31:46;0.80;;;0.50;;
31442;SDS011;18065;55.876;9.830;2024-03-29T06:34:12;0.75;;;0.57;;
31442;SDS011;18065;55.876;9.830;2024-03-29T06:36:38;0.50;;;0.47;;
31442;SDS011;18065;55.876;9.830;2024-03-29T06:39:07;1.00;;;0.60;;
31442;SDS011;18065;55.876;9.830;2024-03-29T06:41:34;0.90;;;0.57;;
31442;SDS011;18065;55.876;9.830;2024-03-29T06:44:03;0.75;;;0.40;;
31442;SDS011;18065;55.876;9.830;2024-03-29T06:46:29;4.57;;;0.80;;
31442;SDS011;18065;55.876;9.830;2024-03-29T06:48:56;0.75;;;0.50;;
31442;SDS011;18065;55.876;9.830;2024-03-29T06:51:22;1.98;;;0.57;;
31442;SDS011;18065;55.876;9.830;2024-03-29T06:53:48;2.47;;;0.80;;
31442;SDS011;18065;55.876;9.830;2024-03-29T06:56:17;2.70;;;0.70;;
31442;SDS011;18065;55.876;9.830;2024-03-29T06:58:43;2.10;;;0.60;;
31442;SDS011;18065;55.876;9.830;2024-03-29T07:01:09;0.75;;;0.50;;
31442;SDS011;18065;55.876;9.830;2024-03-29T07:03:35;1.45;;;0.50;;
31442;SDS011;18065;55.876;9.830;2024-03-29T07:06:02;6.32;;;0.80;;
31442;SDS011;18065;55.876;9.830;2024-03-29T07:08:28;3.00;;;0.60;;
31442;SDS011;18065;55.876;9.830;2024-03-29T07:10:58;1.20;;;0.55;;
31442;SDS011;18065;55.876;9.830;2024-03-29T07:13:27;6.05;;;0.80;;
31442;SDS011;18065;55.876;9.830;2024-03-29T07:15:54;2.97;;;0.82;;
31442;SDS011;18065;55.876;9.830;2024-03-29T07:18:21;4.80;;;0.63;;
31442;SDS011;18065;55.876;9.830;2024-03-29T07:20:47;1.27;;;0.60;;
31442;SDS011;18065;55.876;9.830;2024-03-29T07:23:13;2.03;;;0.52;;
31442;SDS011;18065;55.876;9.830;2024-03-29T07:25:39;5.75;;;1.08;;
31442;SDS011;18065;55.876;9.830;2024-03-29T07:28:06;4.10;;;0.95;;
31442;SDS011;18065;55.876;9.830;2024-03-29T07:30:35;7.20;;;0.70;;
31442;SDS011;18065;55.876;9.830;2024-03-29T07:33:01;6.78;;;0.70;;
31442;SDS011;18065;55.876;9.830;2024-03-29T07:35:27;4.43;;;0.60;;
31442;SDS011;18065;55.876;9.830;2024-03-29T07:37:53;2.97;;;0.95;;
31442;SDS011;18065;55.876;9.830;2024-03-29T07:40:20;4.47;;;0.68;;
31442;SDS011;18065;55.876;9.830;2024-03-29T07:42:46;1.85;;;0.80;;
31442;SDS011;18065;55.876;9.830;2024-03-29T07:45:12;2.65;;;0.50;;
31442;SDS011;18065;55.876;9.830;2024-03-29T07:47:41;2.63;;;0.73;;
31442;SDS011;18065;55.876;9.830;2024-03-29T07:50:08;1.25;;;0.45;;
31442;SDS011;18065;55.876;9.830;2024-03-29T07:52:34;1.20;;;0.50;;
31442;SDS011;18065;55.876;9.830;2024-03-29T07:55:01;3.05;;;0.68;;
31442;SDS011;18065;55.876;9.830;2024-03-29T07:57:27;3.00;;;0.88;;
31442;SDS011;18065;55.876;9.830;2024-03-29T07:59:53;2.70;;;0.80;;
31442;SDS011;18065;55.876;9.830;2024-03-29T08:02:19;2.17;;;0.63;;
31442;SDS011;18065;55.876;9.830;2024-03-29T08:04:51;0.98;;;0.50;;
31442;SDS011;18065;55.876;9.830;2024-03-29T08:07:18;1.42;;;0.65;;
31442;SDS011;18065;55.876;9.830;2024-03-29T08:09:44;3.08;;;1.35;;
31442;SDS011;18065;55.876;9.830;2024-03-29T08:12:10;2.70;;;0.90;;
31442;SDS011;18065;55.876;9.830;2024-03-29T08:14:36;1.67;;;0.60;;
31442;SDS011;18065;55.876;9.830;2024-03-29T08:17:02;2.28;;;0.70;;
31442;SDS011;18065;55.876;9.830;2024-03-29T08:19:29;1.42;;;0.40;;
31442;SDS011;18065;55.876;9.830;2024-03-29T08:21:58;2.08;;;0.65;;
31442;SDS011;18065;55.876;9.830;2024-03-29T08:24:24;2.15;;;0.63;;
31442;SDS011;18065;55.876;9.830;2024-03-29T08:26:50;0.70;;;0.50;;
31442;SDS011;18065;55.876;9.830;2024-03-29T08:29:17;2.10;;;0.75;;
31442;SDS011;18065;55.876;9.830;2024-03-29T08:31:43;1.48;;;0.60;;
31442;SDS011;18065;55.876;9.830;2024-03-29T08:34:09;1.23;;;0.50;;
31442;SDS011;18065;55.876;9.830;2024-03-29T08:36:35;2.45;;;0.70;;
31442;SDS011;18065;55.876;9.830;2024-03-29T08:39:04;0.95;;;0.60;;
31442;SDS011;18065;55.876;9.830;2024-03-29T08:41:30;1.40;;;0.60;;
31442;SDS011;18065;55.876;9.830;2024-03-29T08:43:56;1.77;;;0.57;;
31442;SDS011;18065;55.876;9.830;2024-03-29T08:46:22;0.77;;;0.52;;
31442;SDS011;18065;55.876;9.830;2024-03-29T08:48:49;3.70;;;0.50;;
31442;SDS011;18065;55.876;9.830;2024-03-29T08:51:15;2.10;;;0.60;;
31442;SDS011;18065;55.876;9.830;2024-03-29T08:53:41;2.10;;;0.60;;
31442;SDS011;18065;55.876;9.830;2024-03-29T08:56:10;1.70;;;0.70;;
31442;SDS011;18065;55.876;9.830;2024-03-29T08:58:36;3.85;;;0.70;;
31442;SDS011;18065;55.876;9.830;2024-03-29T09:01:03;2.30;;;0.88;;
31442;SDS011;18065;55.876;9.830;2024-03-29T09:03:30;3.40;;;0.70;;
31442;SDS011;18065;55.876;9.830;2024-03-29T09:05:56;2.38;;;0.50;;
31442;SDS011;18065;55.876;9.830;2024-03-29T09:08:22;2.67;;;0.60;;
31442;SDS011;18065;55.876;9.830;2024-03-29T09:10:49;2.70;;;1.02;;
31442;SDS011;18065;55.876;9.830;2024-03-29T09:13:17;5.07;;;1.40;;
31442;SDS011;18065;55.876;9.830;2024-03-29T09:15:43;2.70;;;1.10;;
31442;SDS011;18065;55.876;9.830;2024-03-29T09:18:10;2.78;;;1.35;;
31442;SDS011;18065;55.876;9.830;2024-03-29T09:20:36;2.15;;;1.05;;
31442;SDS011;18065;55.876;9.830;2024-03-29T09:23:03;5.00;;;1.27;;
31442;SDS011;18065;55.876;9.830;2024-03-29T09:25:29;5.65;;;1.80;;
31442;SDS011;18065;55.876;9.830;2024-03-29T09:27:55;7.00;;;1.30;;
31442;SDS011;18065;55.876;9.830;2024-03-29T09:30:24;3.22;;;1.25;;
31442;SDS011;18065;55.876;9.830;2024-03-29T09:32:50;1.35;;;1.20;;
31442;SDS011;18065;55.876;9.830;2024-03-29T09:35:17;2.65;;;1.50;;
31442;SDS011;18065;55.876;9.830;2024-03-29T09:37:44;6.05;;;1.42;;
31442;SDS011;18065;55.876;9.830;2024-03-29T09:40:10;2.75;;;1.48;;
31442;SDS011;18065;55.876;9.830;2024-03-29T09:42:38;4.53;;;1.52;;
31442;SDS011;18065;55.876;9.830;2024-03-29T09:45:05;5.30;;;1.50;;
31442;SDS011;18065;55.876;9.830;2024-03-29T09:47:35;9.00;;;1.85;;
31442;SDS011;18065;55.876;9.830;2024-03-29T09:50:02;5.90;;;1.90;;
31442;SDS011;18065;55.876;9.830;2024-03-29T09:52:29;4.70;;;1.77;;
31442;SDS011;18065;55.876;9.830;2024-03-29T09:54:56;3.83;;;1.50;;
31442;SDS011;18065;55.876;9.830;2024-03-29T09:57:23;4.70;;;1.75;;
31442;SDS011;18065;55.876;9.830;2024-03-29T09:59:50;2.75;;;1.70;;
31442;SDS011;18065;55.876;9.830;2024-03-29T10:02:16;2.78;;;1.27;;
31442;SDS011;18065;55.876;9.830;2024-03-29T10:04:47;4.75;;;1.85;;
31442;SDS011;18065;55.876;9.830;2024-03-29T10:07:17;8.80;;;3.07;;
31442;SDS011;18065;55.876;9.830;2024-03-29T10:09:43;9.73;;;3.30;;
31442;SDS011;18065;55.876;9.830;2024-03-29T10:12:10;6.45;;;3.28;;
31442;SDS011;18065;55.876;9.830;2024-03-29T10:14:43;7.63;;;4.68;;
31442;SDS011;18065;55.876;9.830;2024-03-29T10:17:10;7.20;;;3.60;;
31442;SDS011;18065;55.876;9.830;2024-03-29T10:19:36;7.57;;;3.08;;
31442;SDS011;18065;55.876;9.830;2024-03-29T10:22:07;6.13;;;2.67;;
31442;SDS011;18065;55.876;9.830;2024-03-29T10:24:34;7.10;;;3.08;;
31442;SDS011;18065;55.876;9.830;2024-03-29T10:27:00;8.05;;;3.88;;
31442;SDS011;18065;55.876;9.830;2024-03-29T10:29:27;7.68;;;2.80;;
31442;SDS011;18065;55.876;9.830;2024-03-29T10:31:54;5.00;;;2.10;;
31442;SDS011;18065;55.876;9.830;2024-03-29T10:34:21;7.82;;;2.72;;
31442;SDS011;18065;55.876;9.830;2024-03-29T10:36:47;5.45;;;2.00;;
31442;SDS011;18065;55.876;9.830;2024-03-29T10:39:16;9.90;;;2.00;;
31442;SDS011;18065;55.876;9.830;2024-03-29T10:41:43;6.43;;;2.42;;
31442;SDS011;18065;55.876;9.830;2024-03-29T10:44:11;5.22;;;2.10;;
31442;SDS011;18065;55.876;9.830;2024-03-29T10:46:39;5.15;;;2.15;;
31442;SDS011;18065;55.876;9.830;2024-03-29T10:49:06;4.30;;;2.20;;
31442;SDS011;18065;55.876;9.830;2024-03-29T10:51:34;5.47;;;2.50;;
31442;SDS011;18065;55.876;9.830;2024-03-29T10:54:03;4.57;;;1.80;;
31442;SDS011;18065;55.876;9.830;2024-03-29T10:56:33;4.35;;;1.73;;
31442;SDS011;18065;55.876;9.830;2024-03-29T10:59:01;4.70;;;1.67;;
31442;SDS011;18065;55.876;9.830;2024-03-29T11:01:31;3.63;;;1.63;;
31442;SDS011;18065;55.876;9.830;2024-03-29T11:04:00;8.10;;;1.50;;
31442;SDS011;18065;55.876;9.830;2024-03-29T11:06:35;2.40;;;1.40;;
31442;SDS011;18065;55.876;9.830;2024-03-29T11:09:04;6.13;;;1.40;;
31442;SDS011;18065;55.876;9.830;2024-03-29T11:11:37;5.85;;;1.60;;
31442;SDS011;18065;55.876;9.830;2024-03-29T11:14:06;8.10;;;1.52;;
31442;SDS011;18065;55.876;9.830;2024-03-29T11:16:33;4.95;;;1.30;;
31442;SDS011;18065;55.876;9.830;2024-03-29T11:19:00;5.18;;;1.55;;
31442;SDS011;18065;55.876;9.830;2024-03-29T11:21:27;4.28;;;1.48;;
31442;SDS011;18065;55.876;9.830;2024-03-29T11:23:53;4.90;;;1.42;;
31442;SDS011;18065;55.876;9.830;2024-03-29T11:26:20;8.20;;;1.45;;
31442;SDS011;18065;55.876;9.830;2024-03-29T11:28:50;4.53;;;1.30;;
31442;SDS011;18065;55.876;9.830;2024-03-29T11:31:17;6.82;;;1.88;;
31442;SDS011;18065;55.876;9.830;2024-03-29T11:33:47;4.10;;;1.48;;
31442;SDS011;18065;55.876;9.830;2024-03-29T11:36:15;3.60;;;1.30;;
31442;SDS011;18065;55.876;9.830;2024-03-29T11:38:42;4.30;;;1.65;;
31442;SDS011;18065;55.876;9.830;2024-03-29T11:41:11;2.22;;;1.40;;
31442;SDS011;18065;55.876;9.830;2024-03-29T11:43:38;2.63;;;1.40;;
31442;SDS011;18065;55.876;9.830;2024-03-29T11:46:08;3.78;;;1.45;;
31442;SDS011;18065;55.876;9.830;2024-03-29T11:48:35;3.28;;;1.55;;
31442;SDS011;18065;55.876;9.830;2024-03-29T11:51:02;2.95;;;1.48;;
31442;SDS011;18065;55.876;9.830;2024-03-29T11:53:29;2.80;;;1.33;;
31442;SDS011;18065;55.876;9.830;2024-03-29T11:55:56;5.07;;;1.50;;
31442;SDS011;18065;55.876;9.830;2024-03-29T11:58:23;4.22;;;1.48;;
31442;SDS011;18065;55.876;9.830;2024-03-29T12:00:50;3.38;;;1.52;;
31442;SDS011;18065;55.876;9.830;2024-03-29T12:03:19;4.38;;;1.70;;
31442;SDS011;18065;55.876;9.830;2024-03-29T12:05:47;4.32;;;1.27;;
31442;SDS011;18065;55.876;9.830;2024-03-29T12:08:15;3.63;;;1.33;;
31442;SDS011;18065;55.876;9.830;2024-03-29T12:10:41;3.47;;;1.42;;
31442;SDS011;18065;55.876;9.830;2024-03-29T12:13:07;3.80;;;1.17;;
31442;SDS011;18065;55.876;9.830;2024-03-29T12:15:34;2.60;;;1.15;;
31442;SDS011;18065;55.876;9.830;2024-03-29T12:18:00;3.53;;;1.50;;
31442;SDS011;18065;55.876;9.830;2024-03-29T12:20:31;3.92;;;1.63;;
31442;SDS011;18065;55.876;9.830;2024-03-29T12:22:58;3.50;;;1.30;;
31442;SDS011;18065;55.876;9.830;2024-03-29T12:25:26;3.10;;;1.45;;
31442;SDS011;18065;55.876;9.830;2024-03-29T12:27:52;3.13;;;1.20;;
31442;SDS011;18065;55.876;9.830;2024-03-29T12:30:18;3.13;;;1.30;;
31442;SDS011;18065;55.876;9.830;2024-03-29T12:32:45;3.63;;;1.48;;
31442;SDS011;18065;55.876;9.830;2024-03-29T12:35:12;3.92;;;1.27;;
31442;SDS011;18065;55.876;9.830;2024-03-29T12:37:46;4.70;;;1.20;;
31442;SDS011;18065;55.876;9.830;2024-03-29T12:40:15;4.63;;;1.35;;
31442;SDS011;18065;55.876;9.830;2024-03-29T12:42:41;2.58;;;1.20;;
31442;SDS011;18065;55.876;9.830;2024-03-29T12:45:08;2.83;;;1.10;;
31442;SDS011;18065;55.876;9.830;2024-03-29T12:47:34;3.78;;;1.27;;
31442;SDS011;18065;55.876;9.830;2024-03-29T12:50:01;3.72;;;1.30;;
31442;SDS011;18065;55.876;9.830;2024-03-29T12:52:35;2.85;;;1.20;;
31442;SDS011;18065;55.876;9.830;2024-03-29T12:55:05;2.60;;;1.30;;
31442;SDS011;18065;55.876;9.830;2024-03-29T12:57:32;2.40;;;1.20;;
31442;SDS011;18065;55.876;9.830;2024-03-29T12:59:58;1.80;;;1.00;;
31442;SDS011;18065;55.876;9.830;2024-03-29T13:02:24;2.75;;;1.02;;
31442;SDS011;18065;55.876;9.830;2024-03-29T13:04:50;4.13;;;1.13;;
31442;SDS011;18065;55.876;9.830;2024-03-29T13:07:16;2.00;;;0.98;;
31442;SDS011;18065;55.876;9.830;2024-03-29T13:09:42;3.60;;;1.40;;
31442;SDS011;18065;55.876;9.830;2024-03-29T13:12:11;2.15;;;0.90;;
31442;SDS011;18065;55.876;9.830;2024-03-29T13:14:37;2.38;;;1.00;;
31442;SDS011;18065;55.876;9.830;2024-03-29T13:17:03;1.88;;;1.05;;
31442;SDS011;18065;55.876;9.830;2024-03-29T13:19:29;1.70;;;0.90;;
31442;SDS011;18065;55.876;9.830;2024-03-29T13:21:56;2.22;;;0.80;;
31442;SDS011;18065;55.876;9.830;2024-03-29T13:24:22;3.45;;;1.33;;
31442;SDS011;18065;55.876;9.830;2024-03-29T13:26:48;2.97;;;1.20;;
31442;SDS011;18065;55.876;9.830;2024-03-29T13:29:17;2.08;;;0.90;;
31442;SDS011;18065;55.876;9.830;2024-03-29T13:31:43;2.47;;;1.20;;
31442;SDS011;18065;55.876;9.830;2024-03-29T13:34:09;2.55;;;0.90;;
31442;SDS011;18065;55.876;9.830;2024-03-29T13:36:37;1.77;;;0.90;;
31442;SDS011;18065;55.876;9.830;2024-03-29T13:39:04;2.53;;;0.95;;
31442;SDS011;18065;55.876;9.830;2024-03-29T13:41:30;3.45;;;0.93;;
31442;SDS011;18065;55.876;9.830;2024-03-29T13:43:56;2.15;;;1.10;;
31442;SDS011;18065;55.876;9.830;2024-03-29T13:46:25;2.58;;;1.02;;
31442;SDS011;18065;55.876;9.830;2024-03-29T13:48:51;1.88;;;0.90;;
31442;SDS011;18065;55.876;9.830;2024-03-29T13:51:17;1.92;;;0.93;;
31442;SDS011;18065;55.876;9.830;2024-03-29T13:53:43;1.85;;;0.75;;
31442;SDS011;18065;55.876;9.830;2024-03-29T13:56:09;1.75;;;1.00;;
31442;SDS011;18065;55.876;9.830;2024-03-29T13:58:35;2.28;;;0.80;;
31442;SDS011;18065;55.876;9.830;2024-03-29T14:01:02;2.22;;;0.88;;
31442;SDS011;18065;55.876;9.830;2024-03-29T14:03:31;3.88;;;0.90;;
31442;SDS011;18065;55.876;9.830;2024-03-29T14:05:57;1.50;;;1.00;;
31442;SDS011;18065;55.876;9.830;2024-03-29T14:08:23;1.92;;;1.10;;
31442;SDS011;18065;55.876;9.830;2024-03-29T14:10:49;2.17;;;1.20;;
31442;SDS011;18065;55.876;9.830;2024-03-29T14:13:15;2.90;;;0.85;;
31442;SDS011;18065;55.876;9.830;2024-03-29T14:15:41;2.25;;;1.00;;
31442;SDS011;18065;55.876;9.830;2024-03-29T14:18:08;3.03;;;1.25;;
31442;SDS011;18065;55.876;9.830;2024-03-29T14:20:36;2.33;;;0.80;;
31442;SDS011;18065;55.876;9.830;2024-03-29T14:23:04;4.60;;;0.98;;
31442;SDS011;18065;55.876;9.830;2024-03-29T14:25:30;2.78;;;0.80;;
31442;SDS011;18065;55.876;9.830;2024-03-29T14:27:56;2.42;;;0.93;;
31442;SDS011;18065;55.876;9.830;2024-03-29T14:30:22;2.28;;;0.80;;
31442;SDS011;18065;55.876;9.830;2024-03-29T14:32:50;4.15;;;0.93;;
31442;SDS011;18065;55.876;9.830;2024-03-29T14:35:16;2.65;;;0.90;;
31442;SDS011;18065;55.876;9.830;2024-03-29T14:37:45;2.38;;;0.90;;
31442;SDS011;18065;55.876;9.830;2024-03-29T14:40:12;1.50;;;0.75;;
31442;SDS011;18065;55.876;9.830;2024-03-29T14:42:39;1.80;;;0.77;;
31442;SDS011;18065;55.876;9.830;2024-03-29T14:45:05;1.77;;;0.77;;
31442;SDS011;18065;55.876;9.830;2024-03-29T14:47:33;3.45;;;1.00;;